Terminal Aerodrome Forecast
Issued by NWS Knoxville/Tri Cities, TN

Home | Current Version | Previous Version | Text Only | Print | Product List | Glossary On
Versions: 1 2 3 4 5 6 7 8 9 10 11
000
FTUS44 KMRX 122336
TAFTRI
TAF
KTRI 122336Z 1300/1324 28015G23KT P6SM BKN050
     FM130300 28012G18KT P6SM SCT045
     FM130900 25006KT P6SM SKC
     FM131800 22010G15KT P6SM FEW250=

USA.gov is the U.S. government's official web portal to all federal, state and local government web resources and services.